sensor_id;sensor_type;location;lat;lon;timestamp;temperature;humidity
12166;DHT22;6146;48.128;11.476;2023-09-12T00:01:06;18.30;99.90
12166;DHT22;6146;48.128;11.476;2023-09-12T00:03:32;18.40;99.90
12166;DHT22;6146;48.128;11.476;2023-09-12T00:06:00;18.40;99.90
12166;DHT22;6146;48.128;11.476;2023-09-12T00:08:26;18.40;99.90
12166;DHT22;6146;48.128;11.476;2023-09-12T00:11:03;18.30;99.90
12166;DHT22;6146;48.128;11.476;2023-09-12T00:13:30;18.30;99.90
12166;DHT22;6146;48.128;11.476;2023-09-12T00:15:56;18.30;99.90
12166;DHT22;6146;48.128;11.476;2023-09-12T00:18:22;18.20;99.90
12166;DHT22;6146;48.128;11.476;2023-09-12T00:20:48;18.20;99.90
12166;DHT22;6146;48.128;11.476;2023-09-12T00:23:13;18.30;99.90
12166;DHT22;6146;48.128;11.476;2023-09-12T00:25:39;18.30;99.90
12166;DHT22;6146;48.128;11.476;2023-09-12T00:28:04;18.30;99.90
12166;DHT22;6146;48.128;11.476;2023-09-12T00:30:30;18.30;99.90
12166;DHT22;6146;48.128;11.476;2023-09-12T00:32:55;18.30;99.90
12166;DHT22;6146;48.128;11.476;2023-09-12T00:35:21;18.30;99.90
12166;DHT22;6146;48.128;11.476;2023-09-12T00:37:46;18.30;99.90
12166;DHT22;6146;48.128;11.476;2023-09-12T00:40:12;18.30;99.90
12166;DHT22;6146;48.128;11.476;2023-09-12T00:42:37;18.30;99.90
12166;DHT22;6146;48.128;11.476;2023-09-12T00:45:03;18.30;99.90
12166;DHT22;6146;48.128;11.476;2023-09-12T00:47:29;18.30;99.90
12166;DHT22;6146;48.128;11.476;2023-09-12T00:49:56;18.30;99.90
12166;DHT22;6146;48.128;11.476;2023-09-12T00:52:26;18.30;99.90
12166;DHT22;6146;48.128;11.476;2023-09-12T00:54:53;18.20;99.90
12166;DHT22;6146;48.128;11.476;2023-09-12T00:57:20;18.20;99.90
12166;DHT22;6146;48.128;11.476;2023-09-12T00:59:47;18.20;99.90
12166;DHT22;6146;48.128;11.476;2023-09-12T01:02:13;18.20;99.90
12166;DHT22;6146;48.128;11.476;2023-09-12T01:04:39;18.20;99.90
12166;DHT22;6146;48.128;11.476;2023-09-12T01:07:05;18.10;99.90
12166;DHT22;6146;48.128;11.476;2023-09-12T01:09:32;18.10;99.90
12166;DHT22;6146;48.128;11.476;2023-09-12T01:11:59;18.10;99.90
12166;DHT22;6146;48.128;11.476;2023-09-12T01:14:27;18.00;99.90
12166;DHT22;6146;48.128;11.476;2023-09-12T01:16:53;17.90;99.90
12166;DHT22;6146;48.128;11.476;2023-09-12T01:19:18;17.80;99.90
12166;DHT22;6146;48.128;11.476;2023-09-12T01:22:03;17.80;99.90
12166;DHT22;6146;48.128;11.476;2023-09-12T01:25:00;17.70;99.90
12166;DHT22;6146;48.128;11.476;2023-09-12T01:27:38;17.70;99.90
12166;DHT22;6146;48.128;11.476;2023-09-12T01:30:08;17.60;99.90
12166;DHT22;6146;48.128;11.476;2023-09-12T01:32:35;17.50;99.90
12166;DHT22;6146;48.128;11.476;2023-09-12T01:35:01;17.40;99.90
12166;DHT22;6146;48.128;11.476;2023-09-12T01:37:29;17.30;99.90
12166;DHT22;6146;48.128;11.476;2023-09-12T01:39:55;17.30;99.90
12166;DHT22;6146;48.128;11.476;2023-09-12T01:42:22;17.30;99.90
12166;DHT22;6146;48.128;11.476;2023-09-12T01:44:50;17.20;99.90
12166;DHT22;6146;48.128;11.476;2023-09-12T01:47:18;17.20;99.90
12166;DHT22;6146;48.128;11.476;2023-09-12T01:49:49;17.20;99.90
12166;DHT22;6146;48.128;11.476;2023-09-12T01:52:15;17.10;99.90
12166;DHT22;6146;48.128;11.476;2023-09-12T01:54:41;17.10;99.90
12166;DHT22;6146;48.128;11.476;2023-09-12T01:57:08;17.00;99.90
12166;DHT22;6146;48.128;11.476;2023-09-12T01:59:34;17.00;99.90
12166;DHT22;6146;48.128;11.476;2023-09-12T02:01:59;16.90;99.90
12166;DHT22;6146;48.128;11.476;2023-09-12T02:04:25;16.90;99.90
12166;DHT22;6146;48.128;11.476;2023-09-12T02:06:51;16.80;99.90
12166;DHT22;6146;48.128;11.476;2023-09-12T02:09:16;16.80;99.90
12166;DHT22;6146;48.128;11.476;2023-09-12T02:11:42;16.80;99.90
12166;DHT22;6146;48.128;11.476;2023-09-12T02:14:07;16.70;99.90
12166;DHT22;6146;48.128;11.476;2023-09-12T02:16:36;16.70;99.90
12166;DHT22;6146;48.128;11.476;2023-09-12T02:19:06;16.70;99.90
12166;DHT22;6146;48.128;11.476;2023-09-12T02:21:32;16.70;99.90
12166;DHT22;6146;48.128;11.476;2023-09-12T02:23:57;16.70;99.90
12166;DHT22;6146;48.128;11.476;2023-09-12T02:26:23;16.60;99.90
12166;DHT22;6146;48.128;11.476;2023-09-12T02:28:48;16.60;99.90
12166;DHT22;6146;48.128;11.476;2023-09-12T02:31:14;16.60;99.90
12166;DHT22;6146;48.128;11.476;2023-09-12T02:33:40;16.50;99.90
12166;DHT22;6146;48.128;11.476;2023-09-12T02:36:06;16.50;99.90
12166;DHT22;6146;48.128;11.476;2023-09-12T02:38:32;16.40;99.90
12166;DHT22;6146;48.128;11.476;2023-09-12T02:40:58;16.40;99.90
12166;DHT22;6146;48.128;11.476;2023-09-12T02:43:23;16.40;99.90
12166;DHT22;6146;48.128;11.476;2023-09-12T02:45:49;16.40;99.90
12166;DHT22;6146;48.128;11.476;2023-09-12T02:48:14;16.40;99.90
12166;DHT22;6146;48.128;11.476;2023-09-12T02:50:40;16.40;99.90
12166;DHT22;6146;48.128;11.476;2023-09-12T02:53:05;16.30;99.90
12166;DHT22;6146;48.128;11.476;2023-09-12T02:55:32;16.30;99.90
12166;DHT22;6146;48.128;11.476;2023-09-12T02:57:57;16.40;99.90
12166;DHT22;6146;48.128;11.476;2023-09-12T03:00:23;16.30;99.90
12166;DHT22;6146;48.128;11.476;2023-09-12T03:02:48;16.30;99.90
12166;DHT22;6146;48.128;11.476;2023-09-12T03:05:14;16.30;99.90
12166;DHT22;6146;48.128;11.476;2023-09-12T03:07:40;16.30;99.90
12166;DHT22;6146;48.128;11.476;2023-09-12T03:10:05;16.30;99.90
12166;DHT22;6146;48.128;11.476;2023-09-12T03:12:31;16.30;99.90
12166;DHT22;6146;48.128;11.476;2023-09-12T03:14:57;16.30;99.90
12166;DHT22;6146;48.128;11.476;2023-09-12T03:17:22;16.30;99.90
12166;DHT22;6146;48.128;11.476;2023-09-12T03:19:48;16.30;99.90
12166;DHT22;6146;48.128;11.476;2023-09-12T03:22:13;16.20;99.90
12166;DHT22;6146;48.128;11.476;2023-09-12T03:24:39;16.20;99.90
12166;DHT22;6146;48.128;11.476;2023-09-12T03:27:04;16.20;99.90
12166;DHT22;6146;48.128;11.476;2023-09-12T03:29:30;16.20;99.90
12166;DHT22;6146;48.128;11.476;2023-09-12T03:31:55;16.20;99.90
12166;DHT22;6146;48.128;11.476;2023-09-12T03:34:21;16.10;99.90
12166;DHT22;6146;48.128;11.476;2023-09-12T03:36:47;16.10;99.90
12166;DHT22;6146;48.128;11.476;2023-09-12T03:39:12;16.10;99.90
12166;DHT22;6146;48.128;11.476;2023-09-12T03:41:39;16.10;99.90
12166;DHT22;6146;48.128;11.476;2023-09-12T03:44:05;16.00;99.90
12166;DHT22;6146;48.128;11.476;2023-09-12T03:46:30;16.00;99.90
12166;DHT22;6146;48.128;11.476;2023-09-12T03:48:56;16.00;99.90
12166;DHT22;6146;48.128;11.476;2023-09-12T03:51:21;16.00;99.90
12166;DHT22;6146;48.128;11.476;2023-09-12T03:53:47;16.00;99.90
12166;DHT22;6146;48.128;11.476;2023-09-12T03:56:15;15.90;99.90
12166;DHT22;6146;48.128;11.476;2023-09-12T03:58:41;15.90;99.90
12166;DHT22;6146;48.128;11.476;2023-09-12T04:01:07;15.90;99.90
12166;DHT22;6146;48.128;11.476;2023-09-12T04:03:32;15.90;99.90
12166;DHT22;6146;48.128;11.476;2023-09-12T04:05:58;15.90;99.90
12166;DHT22;6146;48.128;11.476;2023-09-12T04:08:23;15.90;99.90
12166;DHT22;6146;48.128;11.476;2023-09-12T04:10:49;15.90;99.90
12166;DHT22;6146;48.128;11.476;2023-09-12T04:13:14;15.90;99.90
12166;DHT22;6146;48.128;11.476;2023-09-12T04:15:40;15.90;99.90
12166;DHT22;6146;48.128;11.476;2023-09-12T04:18:06;15.80;99.90
12166;DHT22;6146;48.128;11.476;2023-09-12T04:20:31;15.80;99.90
12166;DHT22;6146;48.128;11.476;2023-09-12T04:22:57;15.80;99.90
12166;DHT22;6146;48.128;11.476;2023-09-12T04:25:22;15.80;99.90
12166;DHT22;6146;48.128;11.476;2023-09-12T04:27:48;15.70;99.90
12166;DHT22;6146;48.128;11.476;2023-09-12T04:30:13;15.70;99.90
12166;DHT22;6146;48.128;11.476;2023-09-12T04:32:39;15.70;99.90
12166;DHT22;6146;48.128;11.476;2023-09-12T04:35:05;15.70;99.90
12166;DHT22;6146;48.128;11.476;2023-09-12T04:37:31;15.70;99.90
12166;DHT22;6146;48.128;11.476;2023-09-12T04:39:56;15.70;99.90
12166;DHT22;6146;48.128;11.476;2023-09-12T04:42:22;15.60;99.90
12166;DHT22;6146;48.128;11.476;2023-09-12T04:44:48;15.60;99.90
12166;DHT22;6146;48.128;11.476;2023-09-12T04:47:13;15.60;99.90
12166;DHT22;6146;48.128;11.476;2023-09-12T04:49:39;15.60;99.90
12166;DHT22;6146;48.128;11.476;2023-09-12T04:52:05;15.60;99.90
12166;DHT22;6146;48.128;11.476;2023-09-12T04:54:31;15.50;99.90
12166;DHT22;6146;48.128;11.476;2023-09-12T04:56:57;15.50;99.90
12166;DHT22;6146;48.128;11.476;2023-09-12T04:59:23;15.50;99.90
12166;DHT22;6146;48.128;11.476;2023-09-12T05:01:48;15.50;99.90
12166;DHT22;6146;48.128;11.476;2023-09-12T05:04:14;15.50;99.90
12166;DHT22;6146;48.128;11.476;2023-09-12T05:06:40;15.60;99.90
12166;DHT22;6146;48.128;11.476;2023-09-12T05:09:05;15.60;99.90
12166;DHT22;6146;48.128;11.476;2023-09-12T05:11:34;15.60;99.90
12166;DHT22;6146;48.128;11.476;2023-09-12T05:14:00;15.70;99.90
12166;DHT22;6146;48.128;11.476;2023-09-12T05:16:25;15.70;99.90
12166;DHT22;6146;48.128;11.476;2023-09-12T05:18:51;15.70;99.90
12166;DHT22;6146;48.128;11.476;2023-09-12T05:21:17;15.80;99.90
12166;DHT22;6146;48.128;11.476;2023-09-12T05:23:42;15.80;99.90
12166;DHT22;6146;48.128;11.476;2023-09-12T05:26:08;15.90;99.90
12166;DHT22;6146;48.128;11.476;2023-09-12T05:28:34;16.00;99.90
12166;DHT22;6146;48.128;11.476;2023-09-12T05:30:59;16.10;99.90
12166;DHT22;6146;48.128;11.476;2023-09-12T05:33:25;16.30;99.90
12166;DHT22;6146;48.128;11.476;2023-09-12T05:35:50;16.50;99.90
12166;DHT22;6146;48.128;11.476;2023-09-12T05:38:16;16.80;99.90
12166;DHT22;6146;48.128;11.476;2023-09-12T05:40:41;17.10;99.90
12166;DHT22;6146;48.128;11.476;2023-09-12T05:43:07;17.50;99.90
12166;DHT22;6146;48.128;11.476;2023-09-12T05:45:32;17.90;99.90
12166;DHT22;6146;48.128;11.476;2023-09-12T05:47:59;18.30;99.90
12166;DHT22;6146;48.128;11.476;2023-09-12T05:50:24;18.90;99.90
12166;DHT22;6146;48.128;11.476;2023-09-12T05:52:50;19.40;99.90
12166;DHT22;6146;48.128;11.476;2023-09-12T05:55:16;20.00;99.90
12166;DHT22;6146;48.128;11.476;2023-09-12T05:57:43;20.70;99.90
12166;DHT22;6146;48.128;11.476;2023-09-12T06:00:09;21.40;99.90
12166;DHT22;6146;48.128;11.476;2023-09-12T06:02:40;21.90;99.90
12166;DHT22;6146;48.128;11.476;2023-09-12T06:05:06;22.30;99.90
12166;DHT22;6146;48.128;11.476;2023-09-12T06:07:32;22.30;99.90
12166;DHT22;6146;48.128;11.476;2023-09-12T06:09:57;22.20;99.90
12166;DHT22;6146;48.128;11.476;2023-09-12T06:12:23;22.00;99.90
12166;DHT22;6146;48.128;11.476;2023-09-12T06:14:49;21.60;99.90
12166;DHT22;6146;48.128;11.476;2023-09-12T06:17:14;21.30;99.90
12166;DHT22;6146;48.128;11.476;2023-09-12T06:19:40;21.10;99.90
12166;DHT22;6146;48.128;11.476;2023-09-12T06:22:05;21.10;99.90
12166;DHT22;6146;48.128;11.476;2023-09-12T06:24:31;21.00;99.90
12166;DHT22;6146;48.128;11.476;2023-09-12T06:26:56;21.00;99.90
12166;DHT22;6146;48.128;11.476;2023-09-12T06:29:22;20.90;99.90
12166;DHT22;6146;48.128;11.476;2023-09-12T06:31:48;20.70;99.90
12166;DHT22;6146;48.128;11.476;2023-09-12T06:34:13;20.70;99.90
12166;DHT22;6146;48.128;11.476;2023-09-12T06:36:39;20.60;99.90
12166;DHT22;6146;48.128;11.476;2023-09-12T06:39:08;20.70;99.90
12166;DHT22;6146;48.128;11.476;2023-09-12T06:41:33;20.90;99.90
12166;DHT22;6146;48.128;11.476;2023-09-12T06:43:59;20.90;99.90
12166;DHT22;6146;48.128;11.476;2023-09-12T06:46:26;21.00;99.90
12166;DHT22;6146;48.128;11.476;2023-09-12T06:48:51;21.10;99.90
12166;DHT22;6146;48.128;11.476;2023-09-12T06:51:17;21.20;99.90
12166;DHT22;6146;48.128;11.476;2023-09-12T06:53:43;21.30;99.90
12166;DHT22;6146;48.128;11.476;2023-09-12T06:56:08;21.40;99.90
12166;DHT22;6146;48.128;11.476;2023-09-12T06:58:34;21.40;99.90
12166;DHT22;6146;48.128;11.476;2023-09-12T07:01:04;21.40;99.90
12166;DHT22;6146;48.128;11.476;2023-09-12T07:03:30;21.70;99.90
12166;DHT22;6146;48.128;11.476;2023-09-12T07:05:56;22.50;99.90
12166;DHT22;6146;48.128;11.476;2023-09-12T07:08:22;24.60;99.90
12166;DHT22;6146;48.128;11.476;2023-09-12T07:10:47;27.20;99.90
12166;DHT22;6146;48.128;11.476;2023-09-12T07:13:13;29.40;99.90
12166;DHT22;6146;48.128;11.476;2023-09-12T07:15:39;30.80;98.70
12166;DHT22;6146;48.128;11.476;2023-09-12T07:18:04;32.30;94.20
12166;DHT22;6146;48.128;11.476;2023-09-12T07:20:32;33.50;90.60
12166;DHT22;6146;48.128;11.476;2023-09-12T07:22:57;34.60;83.60
12166;DHT22;6146;48.128;11.476;2023-09-12T07:25:23;35.60;75.40
12166;DHT22;6146;48.128;11.476;2023-09-12T07:27:49;36.40;70.50
12166;DHT22;6146;48.128;11.476;2023-09-12T07:30:15;36.90;64.80
12166;DHT22;6146;48.128;11.476;2023-09-12T07:32:41;37.20;65.80
12166;DHT22;6146;48.128;11.476;2023-09-12T07:35:07;37.70;58.50
12166;DHT22;6146;48.128;11.476;2023-09-12T07:37:32;37.30;58.20
12166;DHT22;6146;48.128;11.476;2023-09-12T07:39:58;36.90;59.70
12166;DHT22;6146;48.128;11.476;2023-09-12T07:42:24;37.00;58.70
12166;DHT22;6146;48.128;11.476;2023-09-12T07:44:50;36.90;57.70
12166;DHT22;6146;48.128;11.476;2023-09-12T07:47:15;36.90;58.00
12166;DHT22;6146;48.128;11.476;2023-09-12T07:49:41;37.30;59.00
12166;DHT22;6146;48.128;11.476;2023-09-12T07:52:06;37.90;56.20
12166;DHT22;6146;48.128;11.476;2023-09-12T07:54:32;38.10;56.20
12166;DHT22;6146;48.128;11.476;2023-09-12T07:56:58;38.40;55.20
12166;DHT22;6146;48.128;11.476;2023-09-12T07:59:24;38.60;55.70
12166;DHT22;6146;48.128;11.476;2023-09-12T08:01:50;38.40;53.90
12166;DHT22;6146;48.128;11.476;2023-09-12T08:04:16;38.90;54.80
12166;DHT22;6146;48.128;11.476;2023-09-12T08:06:42;39.00;52.20
12166;DHT22;6146;48.128;11.476;2023-09-12T08:09:08;38.90;52.70
12166;DHT22;6146;48.128;11.476;2023-09-12T08:11:35;39.30;51.70
12166;DHT22;6146;48.128;11.476;2023-09-12T08:14:01;39.30;53.40
12166;DHT22;6146;48.128;11.476;2023-09-12T08:16:26;39.60;50.20
12166;DHT22;6146;48.128;11.476;2023-09-12T08:18:52;39.60;50.00
12166;DHT22;6146;48.128;11.476;2023-09-12T08:21:17;39.70;51.10
12166;DHT22;6146;48.128;11.476;2023-09-12T08:23:43;39.90;49.30
12166;DHT22;6146;48.128;11.476;2023-09-12T08:26:10;40.10;50.60
12166;DHT22;6146;48.128;11.476;2023-09-12T08:28:35;40.30;49.40
12166;DHT22;6146;48.128;11.476;2023-09-12T08:31:01;40.60;48.60
12166;DHT22;6146;48.128;11.476;2023-09-12T08:33:27;40.40;48.70
12166;DHT22;6146;48.128;11.476;2023-09-12T08:35:52;40.40;47.10
12166;DHT22;6146;48.128;11.476;2023-09-12T08:38:18;40.80;46.60
12166;DHT22;6146;48.128;11.476;2023-09-12T08:40:53;41.50;46.40
12166;DHT22;6146;48.128;11.476;2023-09-12T08:43:20;41.30;46.50
12166;DHT22;6146;48.128;11.476;2023-09-12T08:45:46;40.70;46.70
12166;DHT22;6146;48.128;11.476;2023-09-12T08:48:12;41.20;45.50
12166;DHT22;6146;48.128;11.476;2023-09-12T08:50:39;42.00;44.90
12166;DHT22;6146;48.128;11.476;2023-09-12T08:53:05;42.10;43.80
12166;DHT22;6146;48.128;11.476;2023-09-12T08:55:34;42.40;43.00
12166;DHT22;6146;48.128;11.476;2023-09-12T08:58:03;42.40;42.60
12166;DHT22;6146;48.128;11.476;2023-09-12T09:00:29;42.00;43.10
12166;DHT22;6146;48.128;11.476;2023-09-12T09:02:55;41.00;44.40
12166;DHT22;6146;48.128;11.476;2023-09-12T09:05:21;40.90;44.80
12166;DHT22;6146;48.128;11.476;2023-09-12T09:07:51;39.80;46.20
12166;DHT22;6146;48.128;11.476;2023-09-12T09:10:18;39.50;46.30
12166;DHT22;6146;48.128;11.476;2023-09-12T09:12:45;40.10;47.10
12166;DHT22;6146;48.128;11.476;2023-09-12T09:17:47;41.90;45.10
12166;DHT22;6146;48.128;11.476;2023-09-12T09:20:31;42.20;42.90
12166;DHT22;6146;48.128;11.476;2023-09-12T09:23:04;42.00;42.80
12166;DHT22;6146;48.128;11.476;2023-09-12T09:25:36;42.20;42.20
12166;DHT22;6146;48.128;11.476;2023-09-12T09:28:05;41.90;42.60
12166;DHT22;6146;48.128;11.476;2023-09-12T09:30:45;42.20;41.70
12166;DHT22;6146;48.128;11.476;2023-09-12T09:33:12;42.10;42.30
12166;DHT22;6146;48.128;11.476;2023-09-12T09:35:41;42.30;40.10
12166;DHT22;6146;48.128;11.476;2023-09-12T09:38:08;42.60;42.40
12166;DHT22;6146;48.128;11.476;2023-09-12T09:40:34;42.30;40.30
12166;DHT22;6146;48.128;11.476;2023-09-12T09:43:02;42.40;41.20
12166;DHT22;6146;48.128;11.476;2023-09-12T09:45:29;42.00;43.30
12166;DHT22;6146;48.128;11.476;2023-09-12T09:48:04;41.20;42.60
12166;DHT22;6146;48.128;11.476;2023-09-12T09:50:34;41.40;41.50
12166;DHT22;6146;48.128;11.476;2023-09-12T09:53:02;41.00;42.40
12166;DHT22;6146;48.128;11.476;2023-09-12T09:55:30;40.60;42.80
12166;DHT22;6146;48.128;11.476;2023-09-12T09:57:55;40.40;43.30
12166;DHT22;6146;48.128;11.476;2023-09-12T10:00:22;40.40;43.60
12166;DHT22;6146;48.128;11.476;2023-09-12T10:02:50;40.40;40.60
12166;DHT22;6146;48.128;11.476;2023-09-12T10:05:17;40.00;42.30
12166;DHT22;6146;48.128;11.476;2023-09-12T10:07:47;39.30;43.10
12166;DHT22;6146;48.128;11.476;2023-09-12T10:10:13;38.90;43.20
12166;DHT22;6146;48.128;11.476;2023-09-12T10:12:45;39.40;45.80
12166;DHT22;6146;48.128;11.476;2023-09-12T10:15:14;39.50;42.80
12166;DHT22;6146;48.128;11.476;2023-09-12T10:17:43;39.60;42.30
12166;DHT22;6146;48.128;11.476;2023-09-12T10:20:16;40.10;42.40
12166;DHT22;6146;48.128;11.476;2023-09-12T10:25:15;39.90;42.00
12166;DHT22;6146;48.128;11.476;2023-09-12T10:27:41;40.10;42.70
12166;DHT22;6146;48.128;11.476;2023-09-12T10:30:07;40.70;41.70
12166;DHT22;6146;48.128;11.476;2023-09-12T10:32:33;41.10;40.60
12166;DHT22;6146;48.128;11.476;2023-09-12T10:35:00;40.70;39.50
12166;DHT22;6146;48.128;11.476;2023-09-12T10:37:29;40.60;39.20
12166;DHT22;6146;48.128;11.476;2023-09-12T10:39:57;40.30;41.50
12166;DHT22;6146;48.128;11.476;2023-09-12T10:42:24;40.00;40.60
12166;DHT22;6146;48.128;11.476;2023-09-12T10:44:51;39.40;41.70
12166;DHT22;6146;48.128;11.476;2023-09-12T10:47:18;38.40;42.40
12166;DHT22;6146;48.128;11.476;2023-09-12T10:49:44;37.30;45.20
12166;DHT22;6146;48.128;11.476;2023-09-12T10:52:10;36.90;45.90
12166;DHT22;6146;48.128;11.476;2023-09-12T10:54:39;37.20;45.80
12166;DHT22;6146;48.128;11.476;2023-09-12T10:57:10;38.30;46.20
12166;DHT22;6146;48.128;11.476;2023-09-12T11:02:33;40.80;42.20
12166;DHT22;6146;48.128;11.476;2023-09-12T11:05:03;40.40;41.80
12166;DHT22;6146;48.128;11.476;2023-09-12T11:12:44;39.90;40.20
12166;DHT22;6146;48.128;11.476;2023-09-12T11:15:10;39.60;40.40
12166;DHT22;6146;48.128;11.476;2023-09-12T11:17:40;39.30;43.10
12166;DHT22;6146;48.128;11.476;2023-09-12T11:20:06;39.40;41.80
12166;DHT22;6146;48.128;11.476;2023-09-12T11:22:40;39.50;41.20
12166;DHT22;6146;48.128;11.476;2023-09-12T11:25:18;39.00;41.60
12166;DHT22;6146;48.128;11.476;2023-09-12T11:30:22;37.90;44.00
12166;DHT22;6146;48.128;11.476;2023-09-12T11:32:50;37.90;43.60
12166;DHT22;6146;48.128;11.476;2023-09-12T11:35:23;38.60;41.10
12166;DHT22;6146;48.128;11.476;2023-09-12T11:37:58;39.20;41.40
12166;DHT22;6146;48.128;11.476;2023-09-12T11:40:27;39.70;39.50
12166;DHT22;6146;48.128;11.476;2023-09-12T11:43:06;39.90;38.90
12166;DHT22;6146;48.128;11.476;2023-09-12T11:45:33;39.30;40.80
12166;DHT22;6146;48.128;11.476;2023-09-12T11:47:59;38.50;42.20
12166;DHT22;6146;48.128;11.476;2023-09-12T11:50:31;38.30;42.60
12166;DHT22;6146;48.128;11.476;2023-09-12T11:53:08;37.80;43.00
12166;DHT22;6146;48.128;11.476;2023-09-12T11:55:48;38.20;43.40
12166;DHT22;6146;48.128;11.476;2023-09-12T11:58:17;38.90;42.80
12166;DHT22;6146;48.128;11.476;2023-09-12T12:00:50;39.60;42.70
12166;DHT22;6146;48.128;11.476;2023-09-12T12:03:18;39.60;40.50
12166;DHT22;6146;48.128;11.476;2023-09-12T12:05:44;38.70;41.30
12166;DHT22;6146;48.128;11.476;2023-09-12T12:08:11;38.40;43.20
12166;DHT22;6146;48.128;11.476;2023-09-12T12:10:37;38.90;43.30
12166;DHT22;6146;48.128;11.476;2023-09-12T12:13:04;40.10;41.60
12166;DHT22;6146;48.128;11.476;2023-09-12T12:15:30;40.90;39.90
12166;DHT22;6146;48.128;11.476;2023-09-12T12:17:56;40.70;39.10
12166;DHT22;6146;48.128;11.476;2023-09-12T12:20:22;40.50;39.60
12166;DHT22;6146;48.128;11.476;2023-09-12T12:22:48;40.30;40.50
12166;DHT22;6146;48.128;11.476;2023-09-12T12:25:16;40.70;38.40
12166;DHT22;6146;48.128;11.476;2023-09-12T12:27:42;40.70;38.90
12166;DHT22;6146;48.128;11.476;2023-09-12T12:30:09;40.70;40.40
12166;DHT22;6146;48.128;11.476;2023-09-12T12:32:43;40.70;39.70
12166;DHT22;6146;48.128;11.476;2023-09-12T12:35:09;41.40;39.30
12166;DHT22;6146;48.128;11.476;2023-09-12T12:37:36;41.30;37.80
12166;DHT22;6146;48.128;11.476;2023-09-12T12:40:02;41.70;35.20
12166;DHT22;6146;48.128;11.476;2023-09-12T12:42:38;41.70;36.00
12166;DHT22;6146;48.128;11.476;2023-09-12T12:45:12;41.70;33.60
12166;DHT22;6146;48.128;11.476;2023-09-12T12:47:38;41.60;36.10
12166;DHT22;6146;48.128;11.476;2023-09-12T12:50:10;41.30;35.60
12166;DHT22;6146;48.128;11.476;2023-09-12T12:52:36;41.50;35.60
12166;DHT22;6146;48.128;11.476;2023-09-12T12:55:07;41.70;35.00
12166;DHT22;6146;48.128;11.476;2023-09-12T12:57:39;41.30;36.20
12166;DHT22;6146;48.128;11.476;2023-09-12T13:00:10;40.90;35.40
12166;DHT22;6146;48.128;11.476;2023-09-12T13:02:37;40.00;36.30
12166;DHT22;6146;48.128;11.476;2023-09-12T13:05:03;39.30;35.60
12166;DHT22;6146;48.128;11.476;2023-09-12T13:07:29;38.20;36.30
12166;DHT22;6146;48.128;11.476;2023-09-12T13:09:54;37.70;38.70
12166;DHT22;6146;48.128;11.476;2023-09-12T13:12:20;37.30;38.80
12166;DHT22;6146;48.128;11.476;2023-09-12T13:14:46;37.00;38.90
12166;DHT22;6146;48.128;11.476;2023-09-12T13:17:11;36.60;38.80
12166;DHT22;6146;48.128;11.476;2023-09-12T13:19:37;36.00;39.40
12166;DHT22;6146;48.128;11.476;2023-09-12T13:22:03;35.40;40.00
12166;DHT22;6146;48.128;11.476;2023-09-12T13:24:28;35.00;41.20
12166;DHT22;6146;48.128;11.476;2023-09-12T13:26:54;34.80;42.90
12166;DHT22;6146;48.128;11.476;2023-09-12T13:29:19;34.70;43.10
12166;DHT22;6146;48.128;11.476;2023-09-12T13:31:45;34.60;44.40
12166;DHT22;6146;48.128;11.476;2023-09-12T13:34:11;34.60;42.80
12166;DHT22;6146;48.128;11.476;2023-09-12T13:36:36;34.30;42.20
12166;DHT22;6146;48.128;11.476;2023-09-12T13:39:02;34.00;44.10
12166;DHT22;6146;48.128;11.476;2023-09-12T13:41:28;33.70;43.40
12166;DHT22;6146;48.128;11.476;2023-09-12T13:43:53;33.30;45.90
12166;DHT22;6146;48.128;11.476;2023-09-12T13:46:19;32.90;46.60
12166;DHT22;6146;48.128;11.476;2023-09-12T13:48:44;32.60;46.20
12166;DHT22;6146;48.128;11.476;2023-09-12T13:51:10;32.40;47.10
12166;DHT22;6146;48.128;11.476;2023-09-12T13:53:37;32.50;46.40
12166;DHT22;6146;48.128;11.476;2023-09-12T13:56:02;32.50;47.40
12166;DHT22;6146;48.128;11.476;2023-09-12T13:58:28;32.60;47.40
12166;DHT22;6146;48.128;11.476;2023-09-12T14:00:53;32.40;46.60
12166;DHT22;6146;48.128;11.476;2023-09-12T14:03:19;32.10;46.40
12166;DHT22;6146;48.128;11.476;2023-09-12T14:05:45;31.90;47.50
12166;DHT22;6146;48.128;11.476;2023-09-12T14:08:10;31.80;47.40
12166;DHT22;6146;48.128;11.476;2023-09-12T14:10:36;31.50;47.90
12166;DHT22;6146;48.128;11.476;2023-09-12T14:13:01;31.30;47.80
12166;DHT22;6146;48.128;11.476;2023-09-12T14:15:27;31.10;48.30
12166;DHT22;6146;48.128;11.476;2023-09-12T14:17:53;30.80;49.80
12166;DHT22;6146;48.128;11.476;2023-09-12T14:20:18;30.60;48.10
12166;DHT22;6146;48.128;11.476;2023-09-12T14:22:44;30.70;49.80
12166;DHT22;6146;48.128;11.476;2023-09-12T14:25:10;30.80;50.10
12166;DHT22;6146;48.128;11.476;2023-09-12T14:27:41;31.00;50.00
12166;DHT22;6146;48.128;11.476;2023-09-12T14:30:07;31.10;52.20
12166;DHT22;6146;48.128;11.476;2023-09-12T14:32:33;31.00;50.00
12166;DHT22;6146;48.128;11.476;2023-09-12T14:34:59;30.90;50.60
12166;DHT22;6146;48.128;11.476;2023-09-12T14:37:24;30.80;49.10
12166;DHT22;6146;48.128;11.476;2023-09-12T14:39:53;30.70;50.70
12166;DHT22;6146;48.128;11.476;2023-09-12T14:42:19;30.80;49.90
12166;DHT22;6146;48.128;11.476;2023-09-12T14:44:44;30.90;49.60
12166;DHT22;6146;48.128;11.476;2023-09-12T14:47:10;30.90;50.00
12166;DHT22;6146;48.128;11.476;2023-09-12T14:49:35;31.00;50.60
12166;DHT22;6146;48.128;11.476;2023-09-12T14:52:01;31.10;50.90
12166;DHT22;6146;48.128;11.476;2023-09-12T14:54:26;31.10;50.00
12166;DHT22;6146;48.128;11.476;2023-09-12T14:56:52;31.20;49.50
12166;DHT22;6146;48.128;11.476;2023-09-12T14:59:18;31.10;49.30
12166;DHT22;6146;48.128;11.476;2023-09-12T15:01:44;31.20;50.80
12166;DHT22;6146;48.128;11.476;2023-09-12T15:04:10;31.10;52.60
12166;DHT22;6146;48.128;11.476;2023-09-12T15:06:37;30.60;54.00
12166;DHT22;6146;48.128;11.476;2023-09-12T15:09:02;30.90;54.90
12166;DHT22;6146;48.128;11.476;2023-09-12T15:11:28;30.80;55.00
12166;DHT22;6146;48.128;11.476;2023-09-12T15:13:53;30.70;56.10
12166;DHT22;6146;48.128;11.476;2023-09-12T15:16:19;30.50;56.70
12166;DHT22;6146;48.128;11.476;2023-09-12T15:18:45;30.40;57.30
12166;DHT22;6146;48.128;11.476;2023-09-12T15:21:10;30.20;57.10
12166;DHT22;6146;48.128;11.476;2023-09-12T15:23:36;30.10;57.80
12166;DHT22;6146;48.128;11.476;2023-09-12T15:26:02;30.00;58.10
12166;DHT22;6146;48.128;11.476;2023-09-12T15:28:28;30.00;58.40
12166;DHT22;6146;48.128;11.476;2023-09-12T15:30:53;29.90;58.70
12166;DHT22;6146;48.128;11.476;2023-09-12T15:33:20;29.90;59.30
12166;DHT22;6146;48.128;11.476;2023-09-12T15:35:48;29.80;59.00
12166;DHT22;6146;48.128;11.476;2023-09-12T15:38:53;29.70;59.40
12166;DHT22;6146;48.128;11.476;2023-09-12T15:41:18;29.60;59.40
12166;DHT22;6146;48.128;11.476;2023-09-12T15:43:44;29.50;59.60